createdAt,value
2022-12-24T00:00:01.364Z,5.9
2022-12-24T00:10:01.283Z,5.8
2022-12-24T00:20:01.985Z,5.7
2022-12-24T00:30:00.979Z,5.7
2022-12-24T00:40:01.944Z,5.7
2022-12-24T00:50:00.165Z,5.7
2022-12-24T01:00:01.384Z,5.7
2022-12-24T01:10:00.828Z,5.6
2022-12-24T01:20:01.645Z,5.7
2022-12-24T01:30:01.143Z,5.7
2022-12-24T01:40:02.367Z,5.7
2022-12-24T01:50:01.264Z,5.9
2022-12-24T02:00:01.272Z,5.8
2022-12-24T02:10:02.678Z,5.8
2022-12-24T02:20:02.303Z,5.8
2022-12-24T02:30:02.715Z,5.9
2022-12-24T02:40:01.306Z,5.8
2022-12-24T02:50:02.399Z,5.9
2022-12-24T03:00:01.318Z,5.9
2022-12-24T03:10:00.954Z,5.8
2022-12-24T03:20:01.346Z,5.8
2022-12-24T03:30:01.181Z,6.0
2022-12-24T03:40:00.202Z,5.9
2022-12-24T03:50:01.284Z,5.8
2022-12-24T04:00:01.008Z,6.0
2022-12-24T04:10:00.994Z,5.9
2022-12-24T04:20:03.352Z,6.1
2022-12-24T04:30:01.031Z,6.1
2022-12-24T04:40:01.316Z,6.0
2022-12-24T04:50:00.146Z,6.0
2022-12-24T05:00:01.443Z,6.1
2022-12-24T05:10:01.031Z,5.7
2022-12-24T05:20:00.202Z,5.7
2022-12-24T05:30:01.197Z,5.7
2022-12-24T05:40:01.925Z,5.5
2022-12-24T05:50:01.680Z,5.5
2022-12-24T06:00:01.131Z,5.4
2022-12-24T06:10:00.173Z,5.4
2022-12-24T06:20:01.258Z,5.4
2022-12-24T06:30:02.223Z,5.6
2022-12-24T06:40:01.418Z,5.7
2022-12-24T06:50:02.185Z,5.7
2022-12-24T07:00:01.020Z,5.7
2022-12-24T07:10:01.092Z,5.6
2022-12-24T07:20:01.105Z,6.0
2022-12-24T07:30:01.335Z,5.8
2022-12-24T07:40:01.344Z,6.0
2022-12-24T07:50:01.127Z,5.9
2022-12-24T08:00:00.815Z,6.1
2022-12-24T08:10:01.070Z,6.4
2022-12-24T08:20:01.001Z,5.8
2022-12-24T08:30:00.139Z,6.1
2022-12-24T08:40:00.187Z,5.6
2022-12-24T08:50:00.993Z,5.7
2022-12-24T09:00:00.131Z,5.7
2022-12-24T09:10:01.047Z,6.0
2022-12-24T09:20:01.082Z,6.0
2022-12-24T09:30:01.407Z,6.1
2022-12-24T09:40:01.092Z,6.3
2022-12-24T09:50:01.353Z,6.4
2022-12-24T10:00:01.136Z,6.7
2022-12-24T10:10:01.391Z,6.7
2022-12-24T10:20:01.645Z,7.0
2022-12-24T10:30:02.863Z,6.9
2022-12-24T10:40:03.170Z,7.0
2022-12-24T10:50:00.162Z,7.1
2022-12-24T11:00:01.281Z,7.2
2022-12-24T11:10:03.488Z,7.3
2022-12-24T11:20:00.198Z,7.2
2022-12-24T11:30:03.054Z,7.3
2022-12-24T11:40:00.188Z,7.4
2022-12-24T11:50:17.487Z,7.4
2022-12-24T12:00:00.163Z,7.5
2022-12-24T12:10:00.137Z,7.9
2022-12-24T12:20:01.511Z,8.0
2022-12-24T12:30:00.978Z,8.2
2022-12-24T12:40:01.102Z,8.2
2022-12-24T12:50:01.961Z,8.7
2022-12-24T13:00:01.347Z,8.7
2022-12-24T13:10:01.983Z,8.7
2022-12-24T13:20:03.022Z,8.8
2022-12-24T13:30:07.158Z,8.9
2022-12-24T13:40:01.348Z,9.4
2022-12-24T13:50:01.091Z,9.0
2022-12-24T14:00:02.223Z,8.8
2022-12-24T14:10:01.198Z,9.1
2022-12-24T14:20:02.642Z,9.1
2022-12-24T14:30:01.083Z,8.9
2022-12-24T14:40:01.056Z,8.9
2022-12-24T14:50:01.129Z,8.6
2022-12-24T15:00:02.494Z,8.6
2022-12-24T15:10:01.443Z,8.4
2022-12-24T15:20:01.535Z,8.2
2022-12-24T15:30:00.159Z,8.0
2022-12-24T15:40:01.238Z,7.9
2022-12-24T15:50:01.311Z,7.9
2022-12-24T16:00:01.268Z,7.8
2022-12-24T16:10:01.278Z,7.7
2022-12-24T16:20:01.053Z,7.5
2022-12-24T16:30:00.161Z,7.4
2022-12-24T16:40:01.299Z,7.4
2022-12-24T16:50:01.059Z,7.4
2022-12-24T17:00:01.040Z,7.4
2022-12-24T17:10:01.413Z,7.5
2022-12-24T17:20:01.041Z,7.5
2022-12-24T17:30:01.216Z,7.5
2022-12-24T17:40:02.024Z,7.6
2022-12-24T17:50:01.234Z,7.7
2022-12-24T18:00:00.984Z,7.6
2022-12-24T18:10:01.026Z,7.6
2022-12-24T18:20:01.688Z,7.7
2022-12-24T18:30:01.104Z,7.8
2022-12-24T18:40:01.264Z,7.7
2022-12-24T18:50:01.023Z,7.8
2022-12-24T19:00:01.006Z,7.8
2022-12-24T19:10:01.521Z,7.9
2022-12-24T19:20:00.206Z,7.8
2022-12-24T19:30:01.243Z,7.9
2022-12-24T19:50:01.008Z,7.7
2022-12-24T20:00:01.236Z,7.6
2022-12-24T20:10:00.180Z,7.5
2022-12-24T20:20:02.839Z,7.5
2022-12-24T20:30:00.970Z,7.6
2022-12-24T20:40:00.172Z,7.6
2022-12-24T20:50:01.496Z,7.6
2022-12-24T21:00:00.195Z,7.5
2022-12-24T21:10:00.181Z,7.6
2022-12-24T21:20:01.039Z,7.5
2022-12-24T21:30:01.233Z,7.4
2022-12-24T21:40:00.172Z,7.6
2022-12-24T21:50:01.113Z,7.3
2022-12-24T22:00:02.317Z,7.4
2022-12-24T22:10:00.967Z,7.4
2022-12-24T22:20:01.105Z,7.5
2022-12-24T22:30:01.023Z,7.7
2022-12-24T22:40:01.069Z,7.4
2022-12-24T22:50:01.262Z,7.5
2022-12-24T23:00:01.261Z,7.5
2022-12-24T23:10:00.155Z,7.2
2022-12-24T23:20:01.623Z,7.1
2022-12-24T23:30:01.050Z,7.0
2022-12-24T23:40:01.344Z,6.9
2022-12-24T23:50:01.056Z,6.8
